sensor_id;sensor_type;location;lat;lon;timestamp;P1;durP1;ratioP1;P2;durP2;ratioP2
60060;SDS011;45933;51.336;12.612;2023-12-20T00:01:35;4.17;;;3.57;;
60060;SDS011;45933;51.336;12.612;2023-12-20T00:04:00;6.03;;;3.53;;
60060;SDS011;45933;51.336;12.612;2023-12-20T00:06:26;4.70;;;3.23;;
60060;SDS011;45933;51.336;12.612;2023-12-20T00:08:51;4.30;;;3.27;;
60060;SDS011;45933;51.336;12.612;2023-12-20T00:11:16;4.63;;;3.10;;
60060;SDS011;45933;51.336;12.612;2023-12-20T00:13:41;3.90;;;2.70;;
60060;SDS011;45933;51.336;12.612;2023-12-20T00:16:07;3.60;;;2.63;;
60060;SDS011;45933;51.336;12.612;2023-12-20T00:18:32;4.03;;;3.17;;
60060;SDS011;45933;51.336;12.612;2023-12-20T00:20:57;3.67;;;2.80;;
60060;SDS011;45933;51.336;12.612;2023-12-20T00:23:23;3.93;;;2.97;;
60060;SDS011;45933;51.336;12.612;2023-12-20T00:25:48;3.97;;;2.80;;
60060;SDS011;45933;51.336;12.612;2023-12-20T00:28:14;4.87;;;3.10;;
60060;SDS011;45933;51.336;12.612;2023-12-20T00:30:39;5.33;;;3.20;;
60060;SDS011;45933;51.336;12.612;2023-12-20T00:33:04;2.73;;;2.43;;
60060;SDS011;45933;51.336;12.612;2023-12-20T00:35:29;3.23;;;2.00;;
60060;SDS011;45933;51.336;12.612;2023-12-20T00:37:55;2.67;;;2.30;;
60060;SDS011;45933;51.336;12.612;2023-12-20T00:40:20;3.40;;;2.33;;
60060;SDS011;45933;51.336;12.612;2023-12-20T00:42:46;2.50;;;2.10;;
60060;SDS011;45933;51.336;12.612;2023-12-20T00:45:11;2.27;;;1.87;;
60060;SDS011;45933;51.336;12.612;2023-12-20T00:47:37;2.63;;;2.00;;
60060;SDS011;45933;51.336;12.612;2023-12-20T00:50:02;1.83;;;1.67;;
60060;SDS011;45933;51.336;12.612;2023-12-20T00:52:28;2.53;;;2.07;;
60060;SDS011;45933;51.336;12.612;2023-12-20T00:54:53;2.40;;;1.70;;
60060;SDS011;45933;51.336;12.612;2023-12-20T00:57:18;1.87;;;1.67;;
60060;SDS011;45933;51.336;12.612;2023-12-20T00:59:44;2.43;;;1.43;;
60060;SDS011;45933;51.336;12.612;2023-12-20T01:02:09;1.90;;;1.43;;
60060;SDS011;45933;51.336;12.612;2023-12-20T01:04:35;1.93;;;1.57;;
60060;SDS011;45933;51.336;12.612;2023-12-20T01:07:00;1.43;;;1.33;;
60060;SDS011;45933;51.336;12.612;2023-12-20T01:09:25;1.50;;;1.10;;
60060;SDS011;45933;51.336;12.612;2023-12-20T01:11:53;1.27;;;1.17;;
60060;SDS011;45933;51.336;12.612;2023-12-20T01:14:18;1.57;;;1.17;;
60060;SDS011;45933;51.336;12.612;2023-12-20T01:16:44;1.87;;;1.50;;
60060;SDS011;45933;51.336;12.612;2023-12-20T01:19:09;2.90;;;1.23;;
60060;SDS011;45933;51.336;12.612;2023-12-20T01:21:35;1.20;;;1.10;;
60060;SDS011;45933;51.336;12.612;2023-12-20T01:24:00;1.10;;;1.00;;
60060;SDS011;45933;51.336;12.612;2023-12-20T01:26:25;1.50;;;1.20;;
60060;SDS011;45933;51.336;12.612;2023-12-20T01:28:51;1.60;;;1.13;;
60060;SDS011;45933;51.336;12.612;2023-12-20T01:31:16;1.83;;;1.13;;
60060;SDS011;45933;51.336;12.612;2023-12-20T01:33:41;1.23;;;1.13;;
60060;SDS011;45933;51.336;12.612;2023-12-20T01:36:06;1.10;;;1.00;;
60060;SDS011;45933;51.336;12.612;2023-12-20T01:38:32;2.07;;;1.03;;
60060;SDS011;45933;51.336;12.612;2023-12-20T01:40:57;2.53;;;1.03;;
60060;SDS011;45933;51.336;12.612;2023-12-20T01:43:23;1.27;;;1.10;;
60060;SDS011;45933;51.336;12.612;2023-12-20T01:45:48;1.00;;;0.97;;
60060;SDS011;45933;51.336;12.612;2023-12-20T01:48:13;1.43;;;1.10;;
60060;SDS011;45933;51.336;12.612;2023-12-20T01:50:40;1.60;;;1.00;;
60060;SDS011;45933;51.336;12.612;2023-12-20T01:53:08;1.30;;;1.10;;
60060;SDS011;45933;51.336;12.612;2023-12-20T01:55:35;1.00;;;0.90;;
60060;SDS011;45933;51.336;12.612;2023-12-20T01:58:03;1.13;;;1.07;;
60060;SDS011;45933;51.336;12.612;2023-12-20T02:00:30;1.43;;;1.33;;
60060;SDS011;45933;51.336;12.612;2023-12-20T02:02:57;1.20;;;1.10;;
60060;SDS011;45933;51.336;12.612;2023-12-20T02:05:26;0.93;;;0.80;;
60060;SDS011;45933;51.336;12.612;2023-12-20T02:07:52;1.30;;;1.10;;
60060;SDS011;45933;51.336;12.612;2023-12-20T02:10:18;0.93;;;0.83;;
60060;SDS011;45933;51.336;12.612;2023-12-20T02:12:43;1.30;;;1.10;;
60060;SDS011;45933;51.336;12.612;2023-12-20T02:15:08;1.17;;;1.07;;
60060;SDS011;45933;51.336;12.612;2023-12-20T02:17:34;1.10;;;1.00;;
60060;SDS011;45933;51.336;12.612;2023-12-20T02:20:00;1.10;;;1.00;;
60060;SDS011;45933;51.336;12.612;2023-12-20T02:22:25;1.20;;;1.10;;
60060;SDS011;45933;51.336;12.612;2023-12-20T02:24:51;1.07;;;1.00;;
60060;SDS011;45933;51.336;12.612;2023-12-20T02:27:17;1.13;;;1.03;;
60060;SDS011;45933;51.336;12.612;2023-12-20T02:29:44;1.53;;;1.13;;
60060;SDS011;45933;51.336;12.612;2023-12-20T02:32:12;1.43;;;1.13;;
60060;SDS011;45933;51.336;12.612;2023-12-20T02:34:37;1.00;;;0.90;;
60060;SDS011;45933;51.336;12.612;2023-12-20T02:37:03;1.27;;;1.10;;
60060;SDS011;45933;51.336;12.612;2023-12-20T02:39:28;1.10;;;1.00;;
60060;SDS011;45933;51.336;12.612;2023-12-20T02:41:53;0.60;;;0.60;;
60060;SDS011;45933;51.336;12.612;2023-12-20T02:44:18;1.33;;;1.10;;
60060;SDS011;45933;51.336;12.612;2023-12-20T02:46:44;1.07;;;0.97;;
60060;SDS011;45933;51.336;12.612;2023-12-20T02:49:09;1.40;;;0.80;;
60060;SDS011;45933;51.336;12.612;2023-12-20T02:51:34;1.10;;;1.00;;
60060;SDS011;45933;51.336;12.612;2023-12-20T02:54:03;1.13;;;1.03;;
60060;SDS011;45933;51.336;12.612;2023-12-20T02:56:28;1.53;;;0.90;;
60060;SDS011;45933;51.336;12.612;2023-12-20T02:58:53;1.07;;;0.97;;
60060;SDS011;45933;51.336;12.612;2023-12-20T03:01:18;1.50;;;1.20;;
60060;SDS011;45933;51.336;12.612;2023-12-20T03:03:44;1.20;;;1.10;;
60060;SDS011;45933;51.336;12.612;2023-12-20T03:06:10;0.80;;;0.80;;
60060;SDS011;45933;51.336;12.612;2023-12-20T03:08:35;1.13;;;1.03;;
60060;SDS011;45933;51.336;12.612;2023-12-20T03:11:00;2.70;;;1.00;;
60060;SDS011;45933;51.336;12.612;2023-12-20T03:13:25;1.07;;;0.97;;
60060;SDS011;45933;51.336;12.612;2023-12-20T03:15:51;1.20;;;1.10;;
60060;SDS011;45933;51.336;12.612;2023-12-20T03:18:16;1.87;;;0.97;;
60060;SDS011;45933;51.336;12.612;2023-12-20T03:20:41;1.03;;;0.93;;
60060;SDS011;45933;51.336;12.612;2023-12-20T03:23:07;1.30;;;1.20;;
60060;SDS011;45933;51.336;12.612;2023-12-20T03:25:32;1.70;;;1.30;;
60060;SDS011;45933;51.336;12.612;2023-12-20T03:27:57;1.17;;;1.07;;
60060;SDS011;45933;51.336;12.612;2023-12-20T03:30:23;1.30;;;1.20;;
60060;SDS011;45933;51.336;12.612;2023-12-20T03:32:48;1.17;;;1.03;;
60060;SDS011;45933;51.336;12.612;2023-12-20T03:35:13;1.17;;;1.07;;
60060;SDS011;45933;51.336;12.612;2023-12-20T03:37:38;1.20;;;1.10;;
60060;SDS011;45933;51.336;12.612;2023-12-20T03:40:04;1.30;;;1.20;;
60060;SDS011;45933;51.336;12.612;2023-12-20T03:42:30;2.40;;;1.17;;
60060;SDS011;45933;51.336;12.612;2023-12-20T03:44:55;1.20;;;1.10;;
60060;SDS011;45933;51.336;12.612;2023-12-20T03:47:21;3.07;;;1.20;;
60060;SDS011;45933;51.336;12.612;2023-12-20T03:49:46;1.10;;;1.10;;
60060;SDS011;45933;51.336;12.612;2023-12-20T03:52:12;1.40;;;1.30;;
60060;SDS011;45933;51.336;12.612;2023-12-20T03:54:37;2.47;;;1.13;;
60060;SDS011;45933;51.336;12.612;2023-12-20T03:57:02;3.77;;;1.20;;
60060;SDS011;45933;51.336;12.612;2023-12-20T03:59:28;2.17;;;1.07;;
60060;SDS011;45933;51.336;12.612;2023-12-20T04:01:53;2.13;;;1.30;;
60060;SDS011;45933;51.336;12.612;2023-12-20T04:04:19;1.67;;;1.30;;
60060;SDS011;45933;51.336;12.612;2023-12-20T04:06:44;1.20;;;1.10;;
60060;SDS011;45933;51.336;12.612;2023-12-20T04:09:09;1.40;;;1.20;;
60060;SDS011;45933;51.336;12.612;2023-12-20T04:11:35;2.33;;;1.20;;
60060;SDS011;45933;51.336;12.612;2023-12-20T04:14:01;1.80;;;1.33;;
60060;SDS011;45933;51.336;12.612;2023-12-20T04:16:26;1.30;;;1.20;;
60060;SDS011;45933;51.336;12.612;2023-12-20T04:18:54;1.70;;;1.23;;
60060;SDS011;45933;51.336;12.612;2023-12-20T04:21:19;1.50;;;1.17;;
60060;SDS011;45933;51.336;12.612;2023-12-20T04:23:44;1.77;;;1.30;;
60060;SDS011;45933;51.336;12.612;2023-12-20T04:26:10;1.43;;;1.10;;
60060;SDS011;45933;51.336;12.612;2023-12-20T04:28:35;1.57;;;1.47;;
60060;SDS011;45933;51.336;12.612;2023-12-20T04:31:00;1.70;;;1.30;;
60060;SDS011;45933;51.336;12.612;2023-12-20T04:33:26;1.50;;;1.40;;
60060;SDS011;45933;51.336;12.612;2023-12-20T04:35:51;2.07;;;1.50;;
60060;SDS011;45933;51.336;12.612;2023-12-20T04:38:16;2.53;;;1.50;;
60060;SDS011;45933;51.336;12.612;2023-12-20T04:40:41;2.23;;;1.70;;
60060;SDS011;45933;51.336;12.612;2023-12-20T04:43:07;1.90;;;1.70;;
60060;SDS011;45933;51.336;12.612;2023-12-20T04:45:33;2.10;;;1.90;;
60060;SDS011;45933;51.336;12.612;2023-12-20T04:47:59;2.00;;;1.80;;
60060;SDS011;45933;51.336;12.612;2023-12-20T04:50:24;1.80;;;1.70;;
60060;SDS011;45933;51.336;12.612;2023-12-20T04:52:50;2.23;;;2.03;;
60060;SDS011;45933;51.336;12.612;2023-12-20T04:55:15;2.27;;;2.07;;
60060;SDS011;45933;51.336;12.612;2023-12-20T04:57:41;2.27;;;2.07;;
60060;SDS011;45933;51.336;12.612;2023-12-20T05:00:06;2.30;;;2.10;;
60060;SDS011;45933;51.336;12.612;2023-12-20T05:02:33;2.10;;;1.90;;
60060;SDS011;45933;51.336;12.612;2023-12-20T05:04:59;2.90;;;1.90;;
60060;SDS011;45933;51.336;12.612;2023-12-20T05:07:25;2.50;;;2.00;;
60060;SDS011;45933;51.336;12.612;2023-12-20T05:09:50;2.93;;;2.23;;
60060;SDS011;45933;51.336;12.612;2023-12-20T05:12:15;2.60;;;2.40;;
60060;SDS011;45933;51.336;12.612;2023-12-20T05:14:40;2.70;;;2.50;;
60060;SDS011;45933;51.336;12.612;2023-12-20T05:17:06;2.83;;;2.50;;
60060;SDS011;45933;51.336;12.612;2023-12-20T05:19:31;2.30;;;2.10;;
60060;SDS011;45933;51.336;12.612;2023-12-20T05:22:00;2.80;;;2.60;;
60060;SDS011;45933;51.336;12.612;2023-12-20T05:24:25;3.07;;;2.67;;
60060;SDS011;45933;51.336;12.612;2023-12-20T05:26:50;3.57;;;2.87;;
60060;SDS011;45933;51.336;12.612;2023-12-20T05:29:15;2.87;;;2.60;;
60060;SDS011;45933;51.336;12.612;2023-12-20T05:31:41;2.90;;;2.67;;
60060;SDS011;45933;51.336;12.612;2023-12-20T05:34:07;3.07;;;2.63;;
60060;SDS011;45933;51.336;12.612;2023-12-20T05:36:33;3.70;;;3.23;;
60060;SDS011;45933;51.336;12.612;2023-12-20T05:38:58;3.37;;;3.07;;
60060;SDS011;45933;51.336;12.612;2023-12-20T05:41:23;3.00;;;2.70;;
60060;SDS011;45933;51.336;12.612;2023-12-20T05:43:49;3.00;;;2.70;;
60060;SDS011;45933;51.336;12.612;2023-12-20T05:46:14;3.60;;;3.20;;
60060;SDS011;45933;51.336;12.612;2023-12-20T05:48:39;4.13;;;3.30;;
60060;SDS011;45933;51.336;12.612;2023-12-20T05:51:04;3.37;;;3.07;;
60060;SDS011;45933;51.336;12.612;2023-12-20T05:53:30;3.27;;;2.97;;
60060;SDS011;45933;51.336;12.612;2023-12-20T05:55:55;4.00;;;3.33;;
60060;SDS011;45933;51.336;12.612;2023-12-20T05:58:20;4.30;;;3.50;;
60060;SDS011;45933;51.336;12.612;2023-12-20T06:00:46;3.80;;;3.40;;
60060;SDS011;45933;51.336;12.612;2023-12-20T06:03:11;4.07;;;3.40;;
60060;SDS011;45933;51.336;12.612;2023-12-20T06:05:36;3.40;;;2.97;;
60060;SDS011;45933;51.336;12.612;2023-12-20T06:08:01;3.57;;;3.27;;
60060;SDS011;45933;51.336;12.612;2023-12-20T06:10:28;3.77;;;3.13;;
60060;SDS011;45933;51.336;12.612;2023-12-20T06:12:53;4.90;;;3.60;;
60060;SDS011;45933;51.336;12.612;2023-12-20T06:15:19;3.63;;;3.30;;
60060;SDS011;45933;51.336;12.612;2023-12-20T06:17:44;4.43;;;4.03;;
60060;SDS011;45933;51.336;12.612;2023-12-20T06:20:11;4.87;;;3.47;;
60060;SDS011;45933;51.336;12.612;2023-12-20T06:22:37;4.20;;;3.63;;
60060;SDS011;45933;51.336;12.612;2023-12-20T06:25:02;5.70;;;4.30;;
60060;SDS011;45933;51.336;12.612;2023-12-20T06:27:28;7.50;;;5.00;;
60060;SDS011;45933;51.336;12.612;2023-12-20T06:29:53;6.73;;;4.60;;
60060;SDS011;45933;51.336;12.612;2023-12-20T06:32:19;5.20;;;3.93;;
60060;SDS011;45933;51.336;12.612;2023-12-20T06:34:44;4.90;;;4.00;;
60060;SDS011;45933;51.336;12.612;2023-12-20T06:37:09;5.67;;;3.97;;
60060;SDS011;45933;51.336;12.612;2023-12-20T06:39:35;6.00;;;4.47;;
60060;SDS011;45933;51.336;12.612;2023-12-20T06:42:00;5.80;;;4.37;;
60060;SDS011;45933;51.336;12.612;2023-12-20T06:44:25;4.33;;;3.57;;
60060;SDS011;45933;51.336;12.612;2023-12-20T06:46:51;4.43;;;3.33;;
60060;SDS011;45933;51.336;12.612;2023-12-20T06:49:16;5.73;;;3.43;;
60060;SDS011;45933;51.336;12.612;2023-12-20T06:51:41;7.53;;;5.30;;
60060;SDS011;45933;51.336;12.612;2023-12-20T06:54:06;9.80;;;6.63;;
60060;SDS011;45933;51.336;12.612;2023-12-20T06:56:32;7.23;;;5.23;;
60060;SDS011;45933;51.336;12.612;2023-12-20T06:58:57;5.93;;;4.00;;
60060;SDS011;45933;51.336;12.612;2023-12-20T07:01:22;6.50;;;3.63;;
60060;SDS011;45933;51.336;12.612;2023-12-20T07:03:47;6.37;;;3.10;;
60060;SDS011;45933;51.336;12.612;2023-12-20T07:06:13;4.90;;;3.20;;
60060;SDS011;45933;51.336;12.612;2023-12-20T07:08:41;3.20;;;2.70;;
60060;SDS011;45933;51.336;12.612;2023-12-20T07:11:06;3.57;;;2.83;;
60060;SDS011;45933;51.336;12.612;2023-12-20T07:13:31;4.20;;;2.90;;
60060;SDS011;45933;51.336;12.612;2023-12-20T07:15:57;3.17;;;2.80;;
60060;SDS011;45933;51.336;12.612;2023-12-20T07:18:22;3.77;;;2.70;;
60060;SDS011;45933;51.336;12.612;2023-12-20T07:20:47;6.60;;;3.93;;
60060;SDS011;45933;51.336;12.612;2023-12-20T07:23:13;4.27;;;3.13;;
60060;SDS011;45933;51.336;12.612;2023-12-20T07:25:38;4.40;;;3.00;;
60060;SDS011;45933;51.336;12.612;2023-12-20T07:28:03;4.30;;;3.43;;
60060;SDS011;45933;51.336;12.612;2023-12-20T07:30:29;5.77;;;3.93;;
60060;SDS011;45933;51.336;12.612;2023-12-20T07:32:54;6.33;;;4.33;;
60060;SDS011;45933;51.336;12.612;2023-12-20T07:35:19;6.27;;;4.10;;
60060;SDS011;45933;51.336;12.612;2023-12-20T07:37:45;7.23;;;4.80;;
60060;SDS011;45933;51.336;12.612;2023-12-20T07:40:10;7.80;;;4.30;;
60060;SDS011;45933;51.336;12.612;2023-12-20T07:42:35;8.87;;;3.63;;
60060;SDS011;45933;51.336;12.612;2023-12-20T07:45:01;5.47;;;3.20;;
60060;SDS011;45933;51.336;12.612;2023-12-20T07:47:26;6.57;;;2.63;;
60060;SDS011;45933;51.336;12.612;2023-12-20T07:49:51;5.37;;;2.40;;
60060;SDS011;45933;51.336;12.612;2023-12-20T07:52:17;3.53;;;1.40;;
60060;SDS011;45933;51.336;12.612;2023-12-20T07:54:43;4.63;;;1.70;;
60060;SDS011;45933;51.336;12.612;2023-12-20T07:57:09;6.73;;;3.53;;
60060;SDS011;45933;51.336;12.612;2023-12-20T07:59:35;5.30;;;2.87;;
60060;SDS011;45933;51.336;12.612;2023-12-20T08:02:00;3.60;;;2.10;;
60060;SDS011;45933;51.336;12.612;2023-12-20T08:04:26;4.27;;;2.13;;
60060;SDS011;45933;51.336;12.612;2023-12-20T08:06:51;5.10;;;2.07;;
60060;SDS011;45933;51.336;12.612;2023-12-20T08:09:16;4.00;;;3.40;;
60060;SDS011;45933;51.336;12.612;2023-12-20T08:11:48;4.37;;;1.70;;
60060;SDS011;45933;51.336;12.612;2023-12-20T08:14:14;2.47;;;1.70;;
60060;SDS011;45933;51.336;12.612;2023-12-20T08:16:40;3.77;;;1.60;;
60060;SDS011;45933;51.336;12.612;2023-12-20T08:19:05;2.90;;;1.43;;
60060;SDS011;45933;51.336;12.612;2023-12-20T08:21:30;4.87;;;1.50;;
60060;SDS011;45933;51.336;12.612;2023-12-20T08:23:56;3.77;;;1.63;;
60060;SDS011;45933;51.336;12.612;2023-12-20T08:26:21;4.97;;;1.60;;
60060;SDS011;45933;51.336;12.612;2023-12-20T08:28:48;2.60;;;1.50;;
60060;SDS011;45933;51.336;12.612;2023-12-20T08:31:14;6.30;;;1.60;;
60060;SDS011;45933;51.336;12.612;2023-12-20T08:33:41;4.13;;;1.63;;
60060;SDS011;45933;51.336;12.612;2023-12-20T08:36:06;3.63;;;1.70;;
60060;SDS011;45933;51.336;12.612;2023-12-20T08:38:31;4.30;;;2.00;;
60060;SDS011;45933;51.336;12.612;2023-12-20T08:40:56;3.40;;;1.60;;
60060;SDS011;45933;51.336;12.612;2023-12-20T08:43:22;5.20;;;1.40;;
60060;SDS011;45933;51.336;12.612;2023-12-20T08:45:47;3.53;;;1.23;;
60060;SDS011;45933;51.336;12.612;2023-12-20T08:48:12;5.53;;;1.23;;
60060;SDS011;45933;51.336;12.612;2023-12-20T08:50:37;3.30;;;1.33;;
60060;SDS011;45933;51.336;12.612;2023-12-20T08:53:03;2.83;;;1.30;;
60060;SDS011;45933;51.336;12.612;2023-12-20T08:55:29;2.97;;;1.37;;
60060;SDS011;45933;51.336;12.612;2023-12-20T08:57:55;7.03;;;1.67;;
60060;SDS011;45933;51.336;12.612;2023-12-20T09:00:21;3.10;;;1.43;;
60060;SDS011;45933;51.336;12.612;2023-12-20T09:02:49;5.40;;;1.90;;
60060;SDS011;45933;51.336;12.612;2023-12-20T09:05:14;6.50;;;3.60;;
60060;SDS011;45933;51.336;12.612;2023-12-20T09:07:39;5.67;;;3.83;;
60060;SDS011;45933;51.336;12.612;2023-12-20T09:10:05;2.57;;;2.00;;
60060;SDS011;45933;51.336;12.612;2023-12-20T09:12:30;2.47;;;1.97;;
60060;SDS011;45933;51.336;12.612;2023-12-20T09:14:56;3.40;;;1.47;;
60060;SDS011;45933;51.336;12.612;2023-12-20T09:17:21;6.20;;;1.80;;
60060;SDS011;45933;51.336;12.612;2023-12-20T09:19:47;4.03;;;1.23;;
60060;SDS011;45933;51.336;12.612;2023-12-20T09:22:13;4.57;;;1.63;;
60060;SDS011;45933;51.336;12.612;2023-12-20T09:24:38;2.73;;;1.40;;
60060;SDS011;45933;51.336;12.612;2023-12-20T09:27:04;4.20;;;1.77;;
60060;SDS011;45933;51.336;12.612;2023-12-20T09:29:30;3.80;;;2.27;;
60060;SDS011;45933;51.336;12.612;2023-12-20T09:31:56;6.13;;;2.13;;
60060;SDS011;45933;51.336;12.612;2023-12-20T09:34:22;3.97;;;1.57;;
60060;SDS011;45933;51.336;12.612;2023-12-20T09:36:48;5.23;;;1.63;;
60060;SDS011;45933;51.336;12.612;2023-12-20T09:39:13;3.90;;;1.63;;
60060;SDS011;45933;51.336;12.612;2023-12-20T09:41:42;4.80;;;1.87;;
60060;SDS011;45933;51.336;12.612;2023-12-20T09:44:11;7.00;;;1.93;;
60060;SDS011;45933;51.336;12.612;2023-12-20T09:46:39;4.27;;;1.77;;
60060;SDS011;45933;51.336;12.612;2023-12-20T09:49:08;3.50;;;1.57;;
60060;SDS011;45933;51.336;12.612;2023-12-20T09:51:35;3.63;;;1.57;;
60060;SDS011;45933;51.336;12.612;2023-12-20T09:54:01;5.73;;;2.00;;
60060;SDS011;45933;51.336;12.612;2023-12-20T09:56:28;7.07;;;2.03;;
60060;SDS011;45933;51.336;12.612;2023-12-20T09:58:54;4.27;;;2.00;;
60060;SDS011;45933;51.336;12.612;2023-12-20T10:01:19;4.33;;;2.07;;
60060;SDS011;45933;51.336;12.612;2023-12-20T10:03:46;6.53;;;2.10;;
60060;SDS011;45933;51.336;12.612;2023-12-20T10:06:11;4.20;;;2.10;;
60060;SDS011;45933;51.336;12.612;2023-12-20T10:08:37;7.38;;;2.22;;
60060;SDS011;45933;51.336;12.612;2023-12-20T10:11:02;4.30;;;1.92;;
60060;SDS011;45933;51.336;12.612;2023-12-20T10:13:29;8.23;;;2.00;;
60060;SDS011;45933;51.336;12.612;2023-12-20T10:15:54;5.73;;;1.87;;
60060;SDS011;45933;51.336;12.612;2023-12-20T10:18:21;6.03;;;1.80;;
60060;SDS011;45933;51.336;12.612;2023-12-20T10:20:46;5.90;;;1.83;;
60060;SDS011;45933;51.336;12.612;2023-12-20T10:23:11;6.43;;;2.13;;
60060;SDS011;45933;51.336;12.612;2023-12-20T10:25:38;2.37;;;1.70;;
60060;SDS011;45933;51.336;12.612;2023-12-20T10:28:14;5.27;;;2.10;;
60060;SDS011;45933;51.336;12.612;2023-12-20T10:30:42;3.43;;;1.73;;
60060;SDS011;45933;51.336;12.612;2023-12-20T10:33:08;5.40;;;1.90;;
60060;SDS011;45933;51.336;12.612;2023-12-20T10:35:34;10.40;;;2.50;;
60060;SDS011;45933;51.336;12.612;2023-12-20T10:38:03;6.23;;;1.90;;
60060;SDS011;45933;51.336;12.612;2023-12-20T10:40:36;4.83;;;2.20;;
60060;SDS011;45933;51.336;12.612;2023-12-20T10:43:02;9.90;;;2.20;;
60060;SDS011;45933;51.336;12.612;2023-12-20T10:45:28;5.10;;;2.00;;
60060;SDS011;45933;51.336;12.612;2023-12-20T10:47:53;6.53;;;2.30;;
60060;SDS011;45933;51.336;12.612;2023-12-20T10:50:19;4.80;;;1.77;;
60060;SDS011;45933;51.336;12.612;2023-12-20T10:52:45;3.55;;;1.90;;
60060;SDS011;45933;51.336;12.612;2023-12-20T10:55:12;5.22;;;1.52;;
60060;SDS011;45933;51.336;12.612;2023-12-20T10:57:37;5.90;;;1.70;;
60060;SDS011;45933;51.336;12.612;2023-12-20T11:00:03;6.28;;;2.28;;
60060;SDS011;45933;51.336;12.612;2023-12-20T11:02:35;2.78;;;1.58;;
60060;SDS011;45933;51.336;12.612;2023-12-20T11:05:25;6.97;;;1.95;;
60060;SDS011;45933;51.336;12.612;2023-12-20T11:08:02;4.28;;;2.00;;
60060;SDS011;45933;51.336;12.612;2023-12-20T11:10:39;7.35;;;2.22;;
60060;SDS011;45933;51.336;12.612;2023-12-20T11:13:27;6.13;;;1.45;;
60060;SDS011;45933;51.336;12.612;2023-12-20T11:15:56;7.38;;;2.00;;
60060;SDS011;45933;51.336;12.612;2023-12-20T11:18:27;4.65;;;1.50;;
60060;SDS011;45933;51.336;12.612;2023-12-20T11:21:00;6.05;;;1.55;;
60060;SDS011;45933;51.336;12.612;2023-12-20T11:23:27;5.78;;;2.00;;
60060;SDS011;45933;51.336;12.612;2023-12-20T11:25:54;6.00;;;2.00;;
60060;SDS011;45933;51.336;12.612;2023-12-20T11:28:24;5.70;;;1.90;;
60060;SDS011;45933;51.336;12.612;2023-12-20T11:33:22;5.50;;;1.95;;
60060;SDS011;45933;51.336;12.612;2023-12-20T11:35:49;5.30;;;1.47;;
60060;SDS011;45933;51.336;12.612;2023-12-20T11:38:15;6.13;;;1.80;;
60060;SDS011;45933;51.336;12.612;2023-12-20T11:40:41;4.83;;;1.57;;
60060;SDS011;45933;51.336;12.612;2023-12-20T11:43:07;6.80;;;1.87;;
60060;SDS011;45933;51.336;12.612;2023-12-20T11:45:32;5.63;;;2.07;;
60060;SDS011;45933;51.336;12.612;2023-12-20T11:48:00;9.03;;;2.20;;
60060;SDS011;45933;51.336;12.612;2023-12-20T11:50:27;6.93;;;1.90;;
60060;SDS011;45933;51.336;12.612;2023-12-20T11:52:53;6.83;;;2.33;;
60060;SDS011;45933;51.336;12.612;2023-12-20T11:55:20;6.37;;;2.03;;
60060;SDS011;45933;51.336;12.612;2023-12-20T11:57:45;6.63;;;1.83;;
60060;SDS011;45933;51.336;12.612;2023-12-20T12:00:11;8.40;;;2.30;;
60060;SDS011;45933;51.336;12.612;2023-12-20T12:02:36;6.03;;;2.03;;
60060;SDS011;45933;51.336;12.612;2023-12-20T12:05:01;7.90;;;2.17;;
60060;SDS011;45933;51.336;12.612;2023-12-20T12:07:30;5.03;;;2.40;;
60060;SDS011;45933;51.336;12.612;2023-12-20T12:09:55;8.20;;;3.60;;
60060;SDS011;45933;51.336;12.612;2023-12-20T12:12:20;8.47;;;2.03;;
60060;SDS011;45933;51.336;12.612;2023-12-20T12:14:46;5.90;;;2.23;;
60060;SDS011;45933;51.336;12.612;2023-12-20T12:17:14;8.47;;;3.07;;
60060;SDS011;45933;51.336;12.612;2023-12-20T12:19:40;6.37;;;1.97;;
60060;SDS011;45933;51.336;12.612;2023-12-20T12:24:38;6.33;;;1.90;;
60060;SDS011;45933;51.336;12.612;2023-12-20T12:27:05;11.50;;;2.60;;
60060;SDS011;45933;51.336;12.612;2023-12-20T12:29:32;6.60;;;1.60;;
60060;SDS011;45933;51.336;12.612;2023-12-20T12:31:58;5.37;;;2.10;;
60060;SDS011;45933;51.336;12.612;2023-12-20T12:34:23;4.40;;;1.60;;
60060;SDS011;45933;51.336;12.612;2023-12-20T12:36:48;7.47;;;2.03;;
60060;SDS011;45933;51.336;12.612;2023-12-20T12:39:14;4.50;;;1.97;;
60060;SDS011;45933;51.336;12.612;2023-12-20T12:41:42;5.03;;;1.80;;
60060;SDS011;45933;51.336;12.612;2023-12-20T12:44:08;5.60;;;1.83;;
60060;SDS011;45933;51.336;12.612;2023-12-20T12:46:33;4.93;;;1.83;;
60060;SDS011;45933;51.336;12.612;2023-12-20T12:48:59;4.13;;;1.60;;
60060;SDS011;45933;51.336;12.612;2023-12-20T12:51:24;6.73;;;2.00;;
60060;SDS011;45933;51.336;12.612;2023-12-20T12:53:50;4.13;;;1.73;;
60060;SDS011;45933;51.336;12.612;2023-12-20T12:56:15;5.57;;;2.00;;
60060;SDS011;45933;51.336;12.612;2023-12-20T12:58:40;6.33;;;1.50;;
60060;SDS011;45933;51.336;12.612;2023-12-20T13:01:06;8.87;;;1.70;;
60060;SDS011;45933;51.336;12.612;2023-12-20T13:03:32;5.77;;;1.77;;
60060;SDS011;45933;51.336;12.612;2023-12-20T13:05:57;3.50;;;1.73;;
60060;SDS011;45933;51.336;12.612;2023-12-20T13:08:22;8.23;;;2.27;;
60060;SDS011;45933;51.336;12.612;2023-12-20T13:10:48;5.20;;;1.67;;
60060;SDS011;45933;51.336;12.612;2023-12-20T13:13:14;3.53;;;1.40;;
60060;SDS011;45933;51.336;12.612;2023-12-20T13:15:39;5.73;;;1.67;;
60060;SDS011;45933;51.336;12.612;2023-12-20T13:18:05;6.07;;;3.00;;
60060;SDS011;45933;51.336;12.612;2023-12-20T13:20:31;6.07;;;2.00;;
60060;SDS011;45933;51.336;12.612;2023-12-20T13:22:57;6.47;;;1.70;;
60060;SDS011;45933;51.336;12.612;2023-12-20T13:25:22;4.00;;;2.03;;
60060;SDS011;45933;51.336;12.612;2023-12-20T13:27:48;8.03;;;1.97;;
60060;SDS011;45933;51.336;12.612;2023-12-20T13:30:14;6.73;;;1.83;;
60060;SDS011;45933;51.336;12.612;2023-12-20T13:32:41;5.20;;;2.10;;
60060;SDS011;45933;51.336;12.612;2023-12-20T13:35:06;5.13;;;1.50;;
60060;SDS011;45933;51.336;12.612;2023-12-20T13:37:31;7.03;;;2.23;;
60060;SDS011;45933;51.336;12.612;2023-12-20T13:39:57;5.40;;;1.60;;
60060;SDS011;45933;51.336;12.612;2023-12-20T13:42:22;4.13;;;1.37;;
60060;SDS011;45933;51.336;12.612;2023-12-20T13:44:47;4.27;;;1.80;;
60060;SDS011;45933;51.336;12.612;2023-12-20T13:47:12;6.83;;;1.80;;
60060;SDS011;45933;51.336;12.612;2023-12-20T13:49:38;4.77;;;1.80;;
60060;SDS011;45933;51.336;12.612;2023-12-20T13:52:03;5.50;;;1.83;;
60060;SDS011;45933;51.336;12.612;2023-12-20T13:54:29;6.53;;;1.63;;
60060;SDS011;45933;51.336;12.612;2023-12-20T13:56:54;2.93;;;1.20;;
60060;SDS011;45933;51.336;12.612;2023-12-20T13:59:20;4.33;;;1.30;;
60060;SDS011;45933;51.336;12.612;2023-12-20T14:01:45;4.67;;;1.20;;
60060;SDS011;45933;51.336;12.612;2023-12-20T14:04:10;8.77;;;1.40;;
60060;SDS011;45933;51.336;12.612;2023-12-20T14:06:36;3.70;;;1.30;;
60060;SDS011;45933;51.336;12.612;2023-12-20T14:09:02;5.70;;;1.50;;
60060;SDS011;45933;51.336;12.612;2023-12-20T14:11:28;3.73;;;1.30;;
60060;SDS011;45933;51.336;12.612;2023-12-20T14:13:53;4.80;;;1.57;;
60060;SDS011;45933;51.336;12.612;2023-12-20T14:16:23;4.50;;;1.80;;
60060;SDS011;45933;51.336;12.612;2023-12-20T14:18:49;6.10;;;1.73;;
60060;SDS011;45933;51.336;12.612;2023-12-20T14:21:16;6.03;;;1.40;;
60060;SDS011;45933;51.336;12.612;2023-12-20T14:23:42;4.03;;;1.33;;
60060;SDS011;45933;51.336;12.612;2023-12-20T14:26:07;3.67;;;1.50;;
60060;SDS011;45933;51.336;12.612;2023-12-20T14:28:32;3.53;;;1.47;;
60060;SDS011;45933;51.336;12.612;2023-12-20T14:30:58;4.03;;;1.20;;